sensor_id;sensor_type;location;lat;lon;timestamp;P1;durP1;ratioP1;P2;durP2;ratioP2
59880;SDS011;45751;51.380;10.326;2022-08-24T00:00:31;9.13;;;3.00;;
59880;SDS011;45751;51.380;10.326;2022-08-24T00:03:00;9.98;;;3.25;;
59880;SDS011;45751;51.380;10.326;2022-08-24T00:05:28;6.72;;;3.20;;
59880;SDS011;45751;51.380;10.326;2022-08-24T00:07:55;7.32;;;3.33;;
59880;SDS011;45751;51.380;10.326;2022-08-24T00:10:22;7.07;;;3.03;;
59880;SDS011;45751;51.380;10.326;2022-08-24T00:12:49;8.80;;;3.40;;
59880;SDS011;45751;51.380;10.326;2022-08-24T00:15:16;7.22;;;3.08;;
59880;SDS011;45751;51.380;10.326;2022-08-24T00:17:44;7.63;;;3.17;;
59880;SDS011;45751;51.380;10.326;2022-08-24T00:20:11;9.50;;;3.40;;
59880;SDS011;45751;51.380;10.326;2022-08-24T00:22:38;7.30;;;3.25;;
59880;SDS011;45751;51.380;10.326;2022-08-24T00:25:06;8.82;;;3.10;;
59880;SDS011;45751;51.380;10.326;2022-08-24T00:27:35;6.80;;;3.35;;
59880;SDS011;45751;51.380;10.326;2022-08-24T00:30:06;9.20;;;3.53;;
59880;SDS011;45751;51.380;10.326;2022-08-24T00:32:35;10.30;;;3.78;;
59880;SDS011;45751;51.380;10.326;2022-08-24T00:35:04;8.43;;;3.20;;
59880;SDS011;45751;51.380;10.326;2022-08-24T00:37:32;7.70;;;3.63;;
59880;SDS011;45751;51.380;10.326;2022-08-24T00:40:01;9.00;;;3.60;;
59880;SDS011;45751;51.380;10.326;2022-08-24T00:42:37;8.10;;;3.28;;
59880;SDS011;45751;51.380;10.326;2022-08-24T00:45:06;9.55;;;3.22;;
59880;SDS011;45751;51.380;10.326;2022-08-24T00:47:41;8.32;;;3.58;;
59880;SDS011;45751;51.380;10.326;2022-08-24T00:50:16;8.07;;;3.30;;
59880;SDS011;45751;51.380;10.326;2022-08-24T00:56:20;8.32;;;3.60;;
59880;SDS011;45751;51.380;10.326;2022-08-24T00:58:58;7.85;;;3.65;;
59880;SDS011;45751;51.380;10.326;2022-08-24T01:01:28;11.10;;;3.60;;
59880;SDS011;45751;51.380;10.326;2022-08-24T01:03:58;7.57;;;3.23;;
59880;SDS011;45751;51.380;10.326;2022-08-24T01:06:25;7.00;;;3.30;;
59880;SDS011;45751;51.380;10.326;2022-08-24T01:08:53;10.63;;;4.25;;
59880;SDS011;45751;51.380;10.326;2022-08-24T01:11:23;12.73;;;3.50;;
59880;SDS011;45751;51.380;10.326;2022-08-24T01:13:58;7.53;;;3.47;;
59880;SDS011;45751;51.380;10.326;2022-08-24T01:16:27;9.48;;;3.60;;
59880;SDS011;45751;51.380;10.326;2022-08-24T01:19:37;8.02;;;3.83;;
59880;SDS011;45751;51.380;10.326;2022-08-24T01:24:30;7.47;;;3.00;;
59880;SDS011;45751;51.380;10.326;2022-08-24T01:26:57;8.05;;;3.80;;
59880;SDS011;45751;51.380;10.326;2022-08-24T01:29:25;8.77;;;3.88;;
59880;SDS011;45751;51.380;10.326;2022-08-24T01:31:56;7.82;;;3.90;;
59880;SDS011;45751;51.380;10.326;2022-08-24T01:34:23;7.10;;;3.33;;
59880;SDS011;45751;51.380;10.326;2022-08-24T01:36:51;8.07;;;3.25;;
59880;SDS011;45751;51.380;10.326;2022-08-24T01:39:24;7.95;;;3.58;;
59880;SDS011;45751;51.380;10.326;2022-08-24T01:42:01;8.73;;;3.97;;
59880;SDS011;45751;51.380;10.326;2022-08-24T01:44:30;8.68;;;3.95;;
59880;SDS011;45751;51.380;10.326;2022-08-24T01:47:00;8.25;;;4.05;;
59880;SDS011;45751;51.380;10.326;2022-08-24T01:49:34;7.72;;;3.65;;
59880;SDS011;45751;51.380;10.326;2022-08-24T01:52:04;7.88;;;3.78;;
59880;SDS011;45751;51.380;10.326;2022-08-24T01:54:32;7.70;;;3.63;;
59880;SDS011;45751;51.380;10.326;2022-08-24T01:57:00;8.93;;;4.05;;
59880;SDS011;45751;51.380;10.326;2022-08-24T01:59:31;7.85;;;3.67;;
59880;SDS011;45751;51.380;10.326;2022-08-24T02:02:10;8.25;;;3.85;;
59880;SDS011;45751;51.380;10.326;2022-08-24T02:04:48;8.50;;;3.33;;
59880;SDS011;45751;51.380;10.326;2022-08-24T02:07:16;9.13;;;3.83;;
59880;SDS011;45751;51.380;10.326;2022-08-24T02:09:43;7.88;;;3.65;;
59880;SDS011;45751;51.380;10.326;2022-08-24T02:12:13;8.00;;;3.47;;
59880;SDS011;45751;51.380;10.326;2022-08-24T02:14:41;7.82;;;3.92;;
59880;SDS011;45751;51.380;10.326;2022-08-24T02:17:09;8.32;;;3.83;;
59880;SDS011;45751;51.380;10.326;2022-08-24T02:19:36;8.10;;;3.28;;
59880;SDS011;45751;51.380;10.326;2022-08-24T02:22:06;8.77;;;3.70;;
59880;SDS011;45751;51.380;10.326;2022-08-24T02:24:36;9.30;;;4.18;;
59880;SDS011;45751;51.380;10.326;2022-08-24T02:27:03;8.98;;;3.80;;
59880;SDS011;45751;51.380;10.326;2022-08-24T02:29:32;8.82;;;3.78;;
59880;SDS011;45751;51.380;10.326;2022-08-24T02:31:59;7.68;;;3.90;;
59880;SDS011;45751;51.380;10.326;2022-08-24T02:34:27;8.20;;;4.55;;
59880;SDS011;45751;51.380;10.326;2022-08-24T02:36:54;8.75;;;3.88;;
59880;SDS011;45751;51.380;10.326;2022-08-24T02:39:21;7.97;;;3.90;;
59880;SDS011;45751;51.380;10.326;2022-08-24T02:41:49;7.80;;;3.67;;
59880;SDS011;45751;51.380;10.326;2022-08-24T02:44:17;10.55;;;4.15;;
59880;SDS011;45751;51.380;10.326;2022-08-24T02:46:46;9.13;;;4.00;;
59880;SDS011;45751;51.380;10.326;2022-08-24T02:49:13;9.00;;;4.28;;
59880;SDS011;45751;51.380;10.326;2022-08-24T02:51:41;8.48;;;4.25;;
59880;SDS011;45751;51.380;10.326;2022-08-24T02:54:19;10.25;;;4.40;;
59880;SDS011;45751;51.380;10.326;2022-08-24T02:56:49;10.82;;;3.70;;
59880;SDS011;45751;51.380;10.326;2022-08-24T02:59:17;9.38;;;4.20;;
59880;SDS011;45751;51.380;10.326;2022-08-24T03:01:45;11.80;;;3.83;;
59880;SDS011;45751;51.380;10.326;2022-08-24T03:04:16;9.00;;;3.90;;
59880;SDS011;45751;51.380;10.326;2022-08-24T03:06:44;9.07;;;4.05;;
59880;SDS011;45751;51.380;10.326;2022-08-24T03:09:11;8.60;;;3.80;;
59880;SDS011;45751;51.380;10.326;2022-08-24T03:11:39;8.10;;;4.15;;
59880;SDS011;45751;51.380;10.326;2022-08-24T03:14:11;11.27;;;3.80;;
59880;SDS011;45751;51.380;10.326;2022-08-24T03:16:39;9.18;;;4.15;;
59880;SDS011;45751;51.380;10.326;2022-08-24T03:19:06;11.52;;;4.15;;
59880;SDS011;45751;51.380;10.326;2022-08-24T03:21:35;8.52;;;4.38;;
59880;SDS011;45751;51.380;10.326;2022-08-24T03:24:03;10.07;;;3.63;;
59880;SDS011;45751;51.380;10.326;2022-08-24T03:26:30;12.35;;;4.57;;
59880;SDS011;45751;51.380;10.326;2022-08-24T03:28:57;9.50;;;4.65;;
59880;SDS011;45751;51.380;10.326;2022-08-24T03:31:25;8.77;;;4.50;;
59880;SDS011;45751;51.380;10.326;2022-08-24T03:33:52;7.68;;;3.78;;
59880;SDS011;45751;51.380;10.326;2022-08-24T03:36:20;9.00;;;3.95;;
59880;SDS011;45751;51.380;10.326;2022-08-24T03:38:47;10.15;;;4.15;;
59880;SDS011;45751;51.380;10.326;2022-08-24T03:41:16;8.45;;;4.10;;
59880;SDS011;45751;51.380;10.326;2022-08-24T03:43:43;9.30;;;4.20;;
59880;SDS011;45751;51.380;10.326;2022-08-24T03:46:20;8.15;;;3.47;;
59880;SDS011;45751;51.380;10.326;2022-08-24T03:48:51;7.82;;;4.03;;
59880;SDS011;45751;51.380;10.326;2022-08-24T03:51:21;9.15;;;3.85;;
59880;SDS011;45751;51.380;10.326;2022-08-24T03:53:50;10.80;;;4.28;;
59880;SDS011;45751;51.380;10.326;2022-08-24T03:56:20;11.10;;;4.38;;
59880;SDS011;45751;51.380;10.326;2022-08-24T03:58:47;9.77;;;4.13;;
59880;SDS011;45751;51.380;10.326;2022-08-24T04:01:14;14.82;;;4.15;;
59880;SDS011;45751;51.380;10.326;2022-08-24T04:03:43;8.02;;;3.95;;
59880;SDS011;45751;51.380;10.326;2022-08-24T04:06:13;12.57;;;4.38;;
59880;SDS011;45751;51.380;10.326;2022-08-24T04:08:42;9.90;;;4.38;;
59880;SDS011;45751;51.380;10.326;2022-08-24T04:11:11;9.75;;;4.18;;
59880;SDS011;45751;51.380;10.326;2022-08-24T04:13:42;9.13;;;4.13;;
59880;SDS011;45751;51.380;10.326;2022-08-24T04:16:11;10.05;;;4.05;;
59880;SDS011;45751;51.380;10.326;2022-08-24T04:18:41;9.25;;;4.28;;
59880;SDS011;45751;51.380;10.326;2022-08-24T04:21:17;10.10;;;4.75;;
59880;SDS011;45751;51.380;10.326;2022-08-24T04:23:50;9.05;;;4.25;;
59880;SDS011;45751;51.380;10.326;2022-08-24T04:26:18;9.60;;;4.18;;
59880;SDS011;45751;51.380;10.326;2022-08-24T04:29:08;9.27;;;4.28;;
59880;SDS011;45751;51.380;10.326;2022-08-24T04:31:42;10.75;;;4.55;;
59880;SDS011;45751;51.380;10.326;2022-08-24T04:34:10;9.55;;;4.72;;
59880;SDS011;45751;51.380;10.326;2022-08-24T04:36:40;8.32;;;4.53;;
59880;SDS011;45751;51.380;10.326;2022-08-24T04:39:08;8.60;;;4.55;;
59880;SDS011;45751;51.380;10.326;2022-08-24T04:41:44;8.45;;;4.20;;
59880;SDS011;45751;51.380;10.326;2022-08-24T04:44:12;9.75;;;4.70;;
59880;SDS011;45751;51.380;10.326;2022-08-24T04:46:40;9.82;;;4.25;;
59880;SDS011;45751;51.380;10.326;2022-08-24T04:49:07;9.05;;;4.57;;
59880;SDS011;45751;51.380;10.326;2022-08-24T04:51:34;9.52;;;5.32;;
59880;SDS011;45751;51.380;10.326;2022-08-24T04:54:03;10.07;;;4.63;;
59880;SDS011;45751;51.380;10.326;2022-08-24T04:56:31;9.38;;;4.68;;
59880;SDS011;45751;51.380;10.326;2022-08-24T04:58:58;10.48;;;4.72;;
59880;SDS011;45751;51.380;10.326;2022-08-24T05:01:26;9.73;;;4.47;;
59880;SDS011;45751;51.380;10.326;2022-08-24T05:03:55;11.10;;;4.90;;
59880;SDS011;45751;51.380;10.326;2022-08-24T05:06:24;10.18;;;4.65;;
59880;SDS011;45751;51.380;10.326;2022-08-24T05:08:52;9.80;;;4.78;;
59880;SDS011;45751;51.380;10.326;2022-08-24T05:11:21;10.00;;;5.22;;
59880;SDS011;45751;51.380;10.326;2022-08-24T05:13:55;18.77;;;11.93;;
59880;SDS011;45751;51.380;10.326;2022-08-24T05:16:23;69.07;;;42.53;;
59880;SDS011;45751;51.380;10.326;2022-08-24T05:18:51;81.25;;;50.83;;
59880;SDS011;45751;51.380;10.326;2022-08-24T05:21:19;33.88;;;22.00;;
59880;SDS011;45751;51.380;10.326;2022-08-24T05:23:48;18.17;;;10.50;;
59880;SDS011;45751;51.380;10.326;2022-08-24T05:26:17;20.00;;;7.47;;
59880;SDS011;45751;51.380;10.326;2022-08-24T05:28:47;11.55;;;6.05;;
59880;SDS011;45751;51.380;10.326;2022-08-24T05:31:15;17.38;;;9.50;;
59880;SDS011;45751;51.380;10.326;2022-08-24T05:33:44;46.85;;;26.98;;
59880;SDS011;45751;51.380;10.326;2022-08-24T05:36:17;46.90;;;28.35;;
59880;SDS011;45751;51.380;10.326;2022-08-24T05:38:49;22.63;;;13.23;;
59880;SDS011;45751;51.380;10.326;2022-08-24T05:41:19;16.45;;;7.55;;
59880;SDS011;45751;51.380;10.326;2022-08-24T05:43:54;12.23;;;6.22;;
59880;SDS011;45751;51.380;10.326;2022-08-24T05:46:21;12.32;;;5.70;;
59880;SDS011;45751;51.380;10.326;2022-08-24T05:48:49;12.93;;;5.00;;
59880;SDS011;45751;51.380;10.326;2022-08-24T05:51:31;43.80;;;27.55;;
59880;SDS011;45751;51.380;10.326;2022-08-24T05:54:03;41.75;;;26.50;;
59880;SDS011;45751;51.380;10.326;2022-08-24T05:56:42;17.83;;;10.80;;
59880;SDS011;45751;51.380;10.326;2022-08-24T05:59:10;10.93;;;5.57;;
59880;SDS011;45751;51.380;10.326;2022-08-24T06:01:37;10.15;;;5.30;;
59880;SDS011;45751;51.380;10.326;2022-08-24T06:04:10;8.98;;;4.65;;
59880;SDS011;45751;51.380;10.326;2022-08-24T06:06:37;9.88;;;5.13;;
59880;SDS011;45751;51.380;10.326;2022-08-24T06:09:05;9.77;;;4.80;;
59880;SDS011;45751;51.380;10.326;2022-08-24T06:11:35;9.35;;;5.25;;
59880;SDS011;45751;51.380;10.326;2022-08-24T06:16:47;11.07;;;5.20;;
59880;SDS011;45751;51.380;10.326;2022-08-24T06:19:16;10.10;;;5.03;;
59880;SDS011;45751;51.380;10.326;2022-08-24T06:21:46;10.02;;;4.65;;
59880;SDS011;45751;51.380;10.326;2022-08-24T06:24:15;11.25;;;4.95;;
59880;SDS011;45751;51.380;10.326;2022-08-24T06:26:45;11.70;;;5.05;;
59880;SDS011;45751;51.380;10.326;2022-08-24T06:29:32;9.13;;;4.20;;
59880;SDS011;45751;51.380;10.326;2022-08-24T06:32:19;10.82;;;5.15;;
59880;SDS011;45751;51.380;10.326;2022-08-24T06:34:47;12.18;;;4.43;;
59880;SDS011;45751;51.380;10.326;2022-08-24T06:37:14;8.60;;;4.70;;
59880;SDS011;45751;51.380;10.326;2022-08-24T06:39:42;12.63;;;5.30;;
59880;SDS011;45751;51.380;10.326;2022-08-24T06:42:09;12.10;;;4.55;;
59880;SDS011;45751;51.380;10.326;2022-08-24T06:44:41;9.50;;;4.30;;
59880;SDS011;45751;51.380;10.326;2022-08-24T06:47:17;10.95;;;4.43;;
59880;SDS011;45751;51.380;10.326;2022-08-24T06:49:46;8.82;;;4.28;;
59880;SDS011;45751;51.380;10.326;2022-08-24T06:52:14;9.60;;;5.13;;
59880;SDS011;45751;51.380;10.326;2022-08-24T06:54:41;10.63;;;4.97;;
59880;SDS011;45751;51.380;10.326;2022-08-24T06:57:08;9.63;;;4.90;;
59880;SDS011;45751;51.380;10.326;2022-08-24T06:59:35;13.43;;;5.07;;
59880;SDS011;45751;51.380;10.326;2022-08-24T07:02:03;11.48;;;5.30;;
59880;SDS011;45751;51.380;10.326;2022-08-24T07:04:32;10.35;;;5.05;;
59880;SDS011;45751;51.380;10.326;2022-08-24T07:07:17;10.02;;;4.95;;
59880;SDS011;45751;51.380;10.326;2022-08-24T07:09:44;10.25;;;4.25;;
59880;SDS011;45751;51.380;10.326;2022-08-24T07:12:13;11.05;;;4.72;;
59880;SDS011;45751;51.380;10.326;2022-08-24T07:14:40;17.88;;;4.85;;
59880;SDS011;45751;51.380;10.326;2022-08-24T07:17:07;10.98;;;4.45;;
59880;SDS011;45751;51.380;10.326;2022-08-24T07:19:38;10.70;;;4.60;;
59880;SDS011;45751;51.380;10.326;2022-08-24T07:22:07;9.20;;;4.30;;
59880;SDS011;45751;51.380;10.326;2022-08-24T07:24:34;8.63;;;3.83;;
59880;SDS011;45751;51.380;10.326;2022-08-24T07:27:01;9.82;;;4.40;;
59880;SDS011;45751;51.380;10.326;2022-08-24T07:29:28;9.80;;;4.13;;
59880;SDS011;45751;51.380;10.326;2022-08-24T07:32:15;9.40;;;4.13;;
59880;SDS011;45751;51.380;10.326;2022-08-24T07:34:43;9.45;;;3.92;;
59880;SDS011;45751;51.380;10.326;2022-08-24T07:37:11;9.18;;;4.00;;
59880;SDS011;45751;51.380;10.326;2022-08-24T07:39:41;11.25;;;4.47;;
59880;SDS011;45751;51.380;10.326;2022-08-24T07:42:09;7.32;;;3.58;;
59880;SDS011;45751;51.380;10.326;2022-08-24T07:44:40;10.90;;;4.05;;
59880;SDS011;45751;51.380;10.326;2022-08-24T07:47:07;11.30;;;4.18;;
59880;SDS011;45751;51.380;10.326;2022-08-24T07:49:54;9.00;;;3.90;;
59880;SDS011;45751;51.380;10.326;2022-08-24T07:52:21;9.45;;;4.00;;
59880;SDS011;45751;51.380;10.326;2022-08-24T07:54:48;8.65;;;3.83;;
59880;SDS011;45751;51.380;10.326;2022-08-24T07:57:15;8.32;;;4.07;;
59880;SDS011;45751;51.380;10.326;2022-08-24T07:59:42;9.27;;;4.30;;
59880;SDS011;45751;51.380;10.326;2022-08-24T08:02:09;10.00;;;4.00;;
59880;SDS011;45751;51.380;10.326;2022-08-24T08:04:38;12.68;;;4.03;;
59880;SDS011;45751;51.380;10.326;2022-08-24T08:07:07;10.35;;;5.03;;
59880;SDS011;45751;51.380;10.326;2022-08-24T08:09:36;8.93;;;4.05;;
59880;SDS011;45751;51.380;10.326;2022-08-24T08:12:03;7.85;;;3.45;;
59880;SDS011;45751;51.380;10.326;2022-08-24T08:14:32;8.98;;;3.47;;
59880;SDS011;45751;51.380;10.326;2022-08-24T08:16:59;10.38;;;4.80;;
59880;SDS011;45751;51.380;10.326;2022-08-24T08:19:26;10.07;;;4.03;;
59880;SDS011;45751;51.380;10.326;2022-08-24T08:21:54;11.32;;;4.20;;
59880;SDS011;45751;51.380;10.326;2022-08-24T08:25:02;9.43;;;4.18;;
59880;SDS011;45751;51.380;10.326;2022-08-24T08:30:02;12.35;;;4.18;;
59880;SDS011;45751;51.380;10.326;2022-08-24T08:32:32;11.48;;;3.85;;
59880;SDS011;45751;51.380;10.326;2022-08-24T08:34:59;8.77;;;3.28;;
59880;SDS011;45751;51.380;10.326;2022-08-24T08:37:29;8.65;;;4.10;;
59880;SDS011;45751;51.380;10.326;2022-08-24T08:39:56;8.98;;;3.85;;
59880;SDS011;45751;51.380;10.326;2022-08-24T08:42:46;9.15;;;3.95;;
59880;SDS011;45751;51.380;10.326;2022-08-24T08:45:25;8.80;;;3.50;;
59880;SDS011;45751;51.380;10.326;2022-08-24T08:48:31;8.98;;;3.15;;
59880;SDS011;45751;51.380;10.326;2022-08-24T08:57:03;10.60;;;2.92;;
59880;SDS011;45751;51.380;10.326;2022-08-24T09:16:20;8.32;;;3.35;;
59880;SDS011;45751;51.380;10.326;2022-08-24T09:19:22;10.13;;;3.58;;
59880;SDS011;45751;51.380;10.326;2022-08-24T09:22:05;8.65;;;3.88;;
59880;SDS011;45751;51.380;10.326;2022-08-24T09:30:21;11.10;;;3.55;;
59880;SDS011;45751;51.380;10.326;2022-08-24T09:41:03;8.00;;;3.08;;
59880;SDS011;45751;51.380;10.326;2022-08-24T10:14:28;6.88;;;3.03;;
59880;SDS011;45751;51.380;10.326;2022-08-24T10:18:05;7.88;;;2.78;;
59880;SDS011;45751;51.380;10.326;2022-08-24T10:20:24;8.40;;;3.08;;
59880;SDS011;45751;51.380;10.326;2022-08-24T10:23:32;8.93;;;3.13;;
59880;SDS011;45751;51.380;10.326;2022-08-24T10:26:05;8.45;;;3.17;;
59880;SDS011;45751;51.380;10.326;2022-08-24T10:28:56;9.55;;;3.10;;
59880;SDS011;45751;51.380;10.326;2022-08-24T10:34:57;7.50;;;2.97;;
59880;SDS011;45751;51.380;10.326;2022-08-24T10:40:20;6.97;;;2.58;;
59880;SDS011;45751;51.380;10.326;2022-08-24T10:53:55;7.38;;;2.65;;
59880;SDS011;45751;51.380;10.326;2022-08-24T10:56:39;8.07;;;2.60;;
59880;SDS011;45751;51.380;10.326;2022-08-24T11:05:06;8.38;;;2.80;;
59880;SDS011;45751;51.380;10.326;2022-08-24T11:10:04;6.70;;;2.30;;
59880;SDS011;45751;51.380;10.326;2022-08-24T11:18:19;10.60;;;2.65;;
59880;SDS011;45751;51.380;10.326;2022-08-24T11:20:40;7.07;;;2.67;;
59880;SDS011;45751;51.380;10.326;2022-08-24T11:23:18;8.25;;;2.67;;
59880;SDS011;45751;51.380;10.326;2022-08-24T11:26:04;7.90;;;2.53;;
59880;SDS011;45751;51.380;10.326;2022-08-24T11:29:06;6.95;;;2.75;;
59880;SDS011;45751;51.380;10.326;2022-08-24T11:31:34;9.20;;;2.55;;
59880;SDS011;45751;51.380;10.326;2022-08-24T11:34:06;6.85;;;3.13;;
59880;SDS011;45751;51.380;10.326;2022-08-24T11:36:36;9.45;;;3.30;;
59880;SDS011;45751;51.380;10.326;2022-08-24T11:39:11;9.00;;;2.63;;
59880;SDS011;45751;51.380;10.326;2022-08-24T11:44:39;7.93;;;2.85;;
59880;SDS011;45751;51.380;10.326;2022-08-24T11:47:51;8.18;;;2.40;;
59880;SDS011;45751;51.380;10.326;2022-08-24T11:50:22;8.43;;;3.00;;
59880;SDS011;45751;51.380;10.326;2022-08-24T11:56:13;6.43;;;2.50;;
59880;SDS011;45751;51.380;10.326;2022-08-24T12:01:54;6.82;;;2.30;;
59880;SDS011;45751;51.380;10.326;2022-08-24T12:10:00;10.52;;;2.63;;
59880;SDS011;45751;51.380;10.326;2022-08-24T12:12:51;7.22;;;2.60;;
59880;SDS011;45751;51.380;10.326;2022-08-24T12:16:11;8.70;;;2.83;;
59880;SDS011;45751;51.380;10.326;2022-08-24T12:21:19;6.10;;;2.28;;
59880;SDS011;45751;51.380;10.326;2022-08-24T12:23:59;6.53;;;2.30;;
59880;SDS011;45751;51.380;10.326;2022-08-24T12:31:53;9.15;;;2.25;;
59880;SDS011;45751;51.380;10.326;2022-08-24T12:42:49;6.22;;;2.25;;
59880;SDS011;45751;51.380;10.326;2022-08-24T12:45:21;6.50;;;2.00;;
59880;SDS011;45751;51.380;10.326;2022-08-24T12:47:51;7.35;;;2.10;;
59880;SDS011;45751;51.380;10.326;2022-08-24T13:01:59;11.10;;;3.92;;
59880;SDS011;45751;51.380;10.326;2022-08-24T13:20:20;6.70;;;2.20;;
59880;SDS011;45751;51.380;10.326;2022-08-24T13:23:17;7.53;;;2.50;;
59880;SDS011;45751;51.380;10.326;2022-08-24T13:48:21;9.18;;;2.65;;
59880;SDS011;45751;51.380;10.326;2022-08-24T13:54:31;7.65;;;2.55;;
59880;SDS011;45751;51.380;10.326;2022-08-24T13:59:59;7.53;;;2.60;;
59880;SDS011;45751;51.380;10.326;2022-08-24T14:02:52;5.63;;;1.92;;
59880;SDS011;45751;51.380;10.326;2022-08-24T14:05:42;6.70;;;2.70;;
59880;SDS011;45751;51.380;10.326;2022-08-24T14:11:07;7.15;;;1.95;;
59880;SDS011;45751;51.380;10.326;2022-08-24T14:14:13;6.00;;;2.20;;
59880;SDS011;45751;51.380;10.326;2022-08-24T14:17:07;8.85;;;2.70;;
59880;SDS011;45751;51.380;10.326;2022-08-24T14:20:03;7.35;;;2.53;;
59880;SDS011;45751;51.380;10.326;2022-08-24T14:25:49;7.60;;;2.78;;
59880;SDS011;45751;51.380;10.326;2022-08-24T14:39:17;5.97;;;2.42;;
59880;SDS011;45751;51.380;10.326;2022-08-24T14:42:02;8.63;;;2.17;;
59880;SDS011;45751;51.380;10.326;2022-08-24T14:44:47;8.75;;;2.75;;
59880;SDS011;45751;51.380;10.326;2022-08-24T14:47:30;7.20;;;2.70;;
59880;SDS011;45751;51.380;10.326;2022-08-24T14:50:19;6.63;;;2.45;;
59880;SDS011;45751;51.380;10.326;2022-08-24T14:55:30;10.73;;;3.47;;
59880;SDS011;45751;51.380;10.326;2022-08-24T14:58:13;10.43;;;3.00;;
59880;SDS011;45751;51.380;10.326;2022-08-24T15:11:44;7.25;;;3.22;;
59880;SDS011;45751;51.380;10.326;2022-08-24T15:14:21;6.93;;;2.83;;
59880;SDS011;45751;51.380;10.326;2022-08-24T15:17:10;6.30;;;2.60;;
59880;SDS011;45751;51.380;10.326;2022-08-24T15:22:38;6.82;;;2.78;;
59880;SDS011;45751;51.380;10.326;2022-08-24T15:25:14;7.68;;;3.10;;
59880;SDS011;45751;51.380;10.326;2022-08-24T15:30:38;6.63;;;2.67;;
59880;SDS011;45751;51.380;10.326;2022-08-24T15:33:11;7.18;;;2.40;;
59880;SDS011;45751;51.380;10.326;2022-08-24T15:35:46;14.02;;;8.60;;
59880;SDS011;45751;51.380;10.326;2022-08-24T15:38:34;8.60;;;4.15;;
59880;SDS011;45751;51.380;10.326;2022-08-24T15:41:07;7.07;;;2.97;;
59880;SDS011;45751;51.380;10.326;2022-08-24T15:43:45;7.13;;;2.35;;
59880;SDS011;45751;51.380;10.326;2022-08-24T15:46:16;8.25;;;2.65;;
59880;SDS011;45751;51.380;10.326;2022-08-24T15:48:46;6.15;;;2.47;;
59880;SDS011;45751;51.380;10.326;2022-08-24T15:51:32;7.45;;;3.13;;
59880;SDS011;45751;51.380;10.326;2022-08-24T15:56:53;6.68;;;2.67;;
59880;SDS011;45751;51.380;10.326;2022-08-24T16:13:31;6.30;;;2.30;;
59880;SDS011;45751;51.380;10.326;2022-08-24T16:16:03;6.72;;;2.28;;
59880;SDS011;45751;51.380;10.326;2022-08-24T16:21:20;14.43;;;5.82;;
59880;SDS011;45751;51.380;10.326;2022-08-24T16:24:05;6.40;;;2.40;;
59880;SDS011;45751;51.380;10.326;2022-08-24T16:37:26;6.28;;;2.28;;
59880;SDS011;45751;51.380;10.326;2022-08-24T16:39:53;6.93;;;2.88;;
59880;SDS011;45751;51.380;10.326;2022-08-24T16:42:22;8.30;;;2.80;;
59880;SDS011;45751;51.380;10.326;2022-08-24T16:44:52;6.30;;;2.55;;
59880;SDS011;45751;51.380;10.326;2022-08-24T16:47:19;7.13;;;2.67;;
59880;SDS011;45751;51.380;10.326;2022-08-24T16:49:48;6.95;;;2.65;;
59880;SDS011;45751;51.380;10.326;2022-08-24T16:52:15;7.88;;;2.50;;
59880;SDS011;45751;51.380;10.326;2022-08-24T16:54:43;10.85;;;2.60;;
59880;SDS011;45751;51.380;10.326;2022-08-24T16:57:15;11.07;;;2.67;;
59880;SDS011;45751;51.380;10.326;2022-08-24T16:59:45;9.80;;;4.15;;
59880;SDS011;45751;51.380;10.326;2022-08-24T17:02:17;9.82;;;2.50;;
59880;SDS011;45751;51.380;10.326;2022-08-24T17:04:44;7.97;;;2.80;;
59880;SDS011;45751;51.380;10.326;2022-08-24T17:07:12;8.13;;;2.70;;
59880;SDS011;45751;51.380;10.326;2022-08-24T17:09:42;9.32;;;2.80;;
59880;SDS011;45751;51.380;10.326;2022-08-24T17:12:10;5.80;;;2.13;;
59880;SDS011;45751;51.380;10.326;2022-08-24T17:14:38;6.15;;;2.38;;
59880;SDS011;45751;51.380;10.326;2022-08-24T17:17:05;6.32;;;2.40;;
59880;SDS011;45751;51.380;10.326;2022-08-24T17:19:35;11.32;;;2.75;;
59880;SDS011;45751;51.380;10.326;2022-08-24T17:22:03;11.13;;;2.83;;
59880;SDS011;45751;51.380;10.326;2022-08-24T17:24:30;8.38;;;2.80;;
59880;SDS011;45751;51.380;10.326;2022-08-24T17:26:58;12.15;;;2.60;;
59880;SDS011;45751;51.380;10.326;2022-08-24T17:29:26;6.78;;;2.53;;
59880;SDS011;45751;51.380;10.326;2022-08-24T17:31:55;7.75;;;2.40;;
59880;SDS011;45751;51.380;10.326;2022-08-24T17:34:24;11.95;;;3.35;;
59880;SDS011;45751;51.380;10.326;2022-08-24T17:36:53;9.00;;;2.60;;
59880;SDS011;45751;51.380;10.326;2022-08-24T17:39:22;7.72;;;2.33;;
59880;SDS011;45751;51.380;10.326;2022-08-24T17:41:54;10.10;;;2.70;;
59880;SDS011;45751;51.380;10.326;2022-08-24T17:44:23;10.75;;;2.70;;
59880;SDS011;45751;51.380;10.326;2022-08-24T17:46:53;8.77;;;2.58;;
59880;SDS011;45751;51.380;10.326;2022-08-24T17:49:23;8.27;;;2.63;;
59880;SDS011;45751;51.380;10.326;2022-08-24T17:51:52;8.90;;;3.17;;
59880;SDS011;45751;51.380;10.326;2022-08-24T17:54:20;10.20;;;3.53;;
59880;SDS011;45751;51.380;10.326;2022-08-24T17:56:47;9.77;;;3.00;;
59880;SDS011;45751;51.380;10.326;2022-08-24T17:59:17;12.05;;;5.53;;
59880;SDS011;45751;51.380;10.326;2022-08-24T18:02:04;11.05;;;4.22;;
59880;SDS011;45751;51.380;10.326;2022-08-24T18:04:34;12.65;;;4.85;;
59880;SDS011;45751;51.380;10.326;2022-08-24T18:07:03;15.65;;;3.90;;
59880;SDS011;45751;51.380;10.326;2022-08-24T18:09:39;15.32;;;5.57;;
59880;SDS011;45751;51.380;10.326;2022-08-24T18:12:11;10.95;;;3.60;;
59880;SDS011;45751;51.380;10.326;2022-08-24T18:14:38;9.82;;;3.35;;
59880;SDS011;45751;51.380;10.326;2022-08-24T18:17:06;10.35;;;3.08;;
59880;SDS011;45751;51.380;10.326;2022-08-24T18:22:02;10.43;;;3.05;;
59880;SDS011;45751;51.380;10.326;2022-08-24T18:24:30;16.20;;;3.17;;
59880;SDS011;45751;51.380;10.326;2022-08-24T18:26:58;13.57;;;3.10;;
59880;SDS011;45751;51.380;10.326;2022-08-24T18:29:36;12.98;;;3.40;;
59880;SDS011;45751;51.380;10.326;2022-08-24T18:32:08;10.13;;;3.08;;
59880;SDS011;45751;51.380;10.326;2022-08-24T18:34:36;10.82;;;3.13;;
59880;SDS011;45751;51.380;10.326;2022-08-24T18:37:04;11.80;;;3.38;;
59880;SDS011;45751;51.380;10.326;2022-08-24T18:39:33;7.97;;;2.75;;
59880;SDS011;45751;51.380;10.326;2022-08-24T18:42:00;9.48;;;2.50;;
59880;SDS011;45751;51.380;10.326;2022-08-24T18:44:30;8.52;;;2.47;;
59880;SDS011;45751;51.380;10.326;2022-08-24T18:46:57;11.95;;;2.80;;
59880;SDS011;45751;51.380;10.326;2022-08-24T18:49:25;15.02;;;2.70;;
59880;SDS011;45751;51.380;10.326;2022-08-24T18:51:51;10.88;;;2.92;;
59880;SDS011;45751;51.380;10.326;2022-08-24T18:56:47;21.45;;;8.73;;
59880;SDS011;45751;51.380;10.326;2022-08-24T18:59:15;17.50;;;6.88;;
59880;SDS011;45751;51.380;10.326;2022-08-24T19:01:44;13.38;;;4.40;;
59880;SDS011;45751;51.380;10.326;2022-08-24T19:04:32;11.82;;;3.55;;
59880;SDS011;45751;51.380;10.326;2022-08-24T19:07:09;17.55;;;3.25;;
59880;SDS011;45751;51.380;10.326;2022-08-24T19:09:36;15.15;;;3.55;;
59880;SDS011;45751;51.380;10.326;2022-08-24T19:12:03;13.75;;;3.60;;
59880;SDS011;45751;51.380;10.326;2022-08-24T19:14:31;8.02;;;2.83;;
59880;SDS011;45751;51.380;10.326;2022-08-24T19:16:58;10.82;;;3.33;;
59880;SDS011;45751;51.380;10.326;2022-08-24T19:19:25;13.73;;;4.28;;
59880;SDS011;45751;51.380;10.326;2022-08-24T19:21:52;9.65;;;3.00;;
59880;SDS011;45751;51.380;10.326;2022-08-24T19:24:21;12.07;;;2.72;;
59880;SDS011;45751;51.380;10.326;2022-08-24T19:26:51;10.02;;;2.80;;